createdAt,value
2023-01-13T05:30:33.790Z,100558.34
2023-01-13T05:34:36.906Z,100567.25
2023-01-13T05:38:39.681Z,100567.41
2023-01-13T05:43:21.745Z,100563.56
2023-01-13T05:47:24.433Z,100574.50
2023-01-13T05:51:27.857Z,100578.59
2023-01-13T05:55:30.513Z,100578.59
2023-01-13T05:59:33.561Z,100585.66
2023-01-13T06:03:37.176Z,100589.22
2023-01-13T06:07:41.938Z,100590.50
2023-01-13T06:11:47.599Z,100585.28
2023-01-13T06:16:00.535Z,100580.94
2023-01-13T06:20:03.387Z,100584.91
2023-01-13T06:24:07.903Z,100581.19
2023-01-13T06:28:11.098Z,100585.59
2023-01-13T06:32:18.507Z,100586.78
2023-01-13T06:36:25.432Z,100590.06
2023-01-13T06:40:28.769Z,100595.72
2023-01-13T06:44:32.104Z,100588.38
2023-01-13T06:48:35.808Z,100588.84
2023-01-13T06:52:38.574Z,100586.88
2023-01-13T06:56:41.626Z,100585.66
2023-01-13T07:00:44.635Z,100589.22
2023-01-13T07:04:47.808Z,100593.19
2023-01-13T07:08:50.752Z,100597.66
2023-01-13T07:13:12.286Z,100596.00
2023-01-13T07:17:15.004Z,100594.03
2023-01-13T07:21:20.167Z,100599.03
2023-01-13T07:25:23.218Z,100593.66
2023-01-13T07:29:26.266Z,100592.19
2023-01-13T07:33:33.139Z,100598.88
2023-01-13T07:37:38.269Z,100603.69
2023-01-13T07:41:59.540Z,100601.62
2023-01-13T07:46:05.158Z,100605.94
2023-01-13T07:50:09.726Z,100606.37
2023-01-13T07:54:12.847Z,100607.41
2023-01-13T07:58:15.649Z,100626.38
2023-01-13T08:02:18.952Z,100627.25
2023-01-13T08:06:22.399Z,100625.19
2023-01-13T08:10:26.874Z,100635.41
2023-01-13T08:14:32.984Z,100640.06
2023-01-13T08:18:36.547Z,100641.34
2023-01-13T08:22:43.150Z,100629.25
2023-01-13T08:26:53.338Z,100635.53
2023-01-13T08:30:59.699Z,100635.81
2023-01-13T08:35:05.073Z,100642.78
2023-01-13T08:39:13.549Z,100647.72
2023-01-13T08:43:19.508Z,100639.28
2023-01-13T08:47:45.728Z,100657.72
2023-01-13T08:51:57.353Z,100672.25
2023-01-13T08:56:11.915Z,100662.41
2023-01-13T09:00:23.578Z,100666.19
2023-01-13T09:04:49.956Z,100671.25
2023-01-13T09:08:53.064Z,100679.97
2023-01-13T09:13:14.931Z,100678.66
2023-01-13T09:17:18.683Z,100671.59
2023-01-13T09:21:22.400Z,100678.13
2023-01-13T09:25:25.427Z,100675.34
2023-01-13T09:29:28.122Z,100665.25
2023-01-13T09:34:06.500Z,100665.75
2023-01-13T09:38:09.321Z,100661.94
2023-01-13T09:42:47.186Z,100658.56
2023-01-13T09:46:52.633Z,100654.84
2023-01-13T09:51:27.932Z,100645.19
2023-01-13T09:55:34.927Z,100646.56
2023-01-13T09:59:38.411Z,100642.56
2023-01-13T10:03:41.262Z,100637.72
2023-01-13T10:07:50.536Z,100641.38
2023-01-13T10:12:14.793Z,100643.47
2023-01-13T10:16:52.413Z,100640.50
2023-01-13T10:21:11.558Z,100650.53
2023-01-13T10:25:27.843Z,100649.06
2023-01-13T10:29:31.793Z,100645.69
2023-01-13T10:33:34.863Z,100643.50
2023-01-13T10:37:37.808Z,100631.47
2023-01-13T10:41:40.778Z,100623.94
2023-01-13T10:45:52.926Z,100624.75
2023-01-13T10:50:02.939Z,100631.53
2023-01-13T10:54:11.829Z,100629.09
2023-01-13T10:58:19.803Z,100622.19
2023-01-13T11:02:26.861Z,100615.94
2023-01-13T11:06:31.194Z,100619.75
2023-01-13T11:10:34.195Z,100609.03
2023-01-13T11:14:45.575Z,100605.34
2023-01-13T11:19:11.974Z,100597.88
2023-01-13T11:23:22.955Z,100598.06
2023-01-13T11:27:55.731Z,100587.00
2023-01-13T11:32:17.968Z,100585.94
2023-01-13T11:36:43.788Z,100582.84
2023-01-13T11:40:48.924Z,100590.88
2023-01-13T11:44:54.679Z,100558.97
2023-01-13T11:48:57.875Z,100563.59
2023-01-13T11:53:27.903Z,100565.16
2023-01-13T11:57:52.819Z,100554.34
2023-01-13T12:02:25.290Z,100544.75
2023-01-13T12:07:12.193Z,100530.72
2023-01-13T12:17:16.656Z,100532.66
2023-01-13T12:31:50.008Z,100513.88
2023-01-13T12:36:14.647Z,100497.03
2023-01-13T12:40:44.094Z,100483.25
2023-01-13T12:45:06.218Z,100476.12
2023-01-13T12:49:19.672Z,100471.16
2023-01-13T12:53:36.719Z,100468.75
2023-01-13T12:57:40.411Z,100462.78
2023-01-13T13:01:44.760Z,100457.78
2023-01-13T13:05:58.195Z,100473.97
2023-01-13T13:10:05.184Z,100471.59
2023-01-13T13:14:46.442Z,100481.00
2023-01-13T13:18:51.400Z,100482.34
2023-01-13T13:22:55.611Z,100487.94
2023-01-13T13:26:58.309Z,100496.31
2023-01-13T13:31:20.725Z,100488.91
2023-01-13T13:35:40.483Z,100495.84
2023-01-13T13:40:03.230Z,100493.06
2023-01-13T13:44:46.213Z,100504.97
2023-01-13T13:48:54.430Z,100504.53
2023-01-13T13:53:08.319Z,100511.22
2023-01-13T13:57:37.431Z,100506.97
2023-01-13T14:01:43.988Z,100516.00
2023-01-13T14:05:55.932Z,100508.19
2023-01-13T14:09:59.747Z,100502.88
2023-01-13T14:14:13.116Z,100500.84
2023-01-13T14:18:21.236Z,100512.38
2023-01-13T14:22:24.562Z,100512.97
2023-01-13T14:26:32.081Z,100515.94
2023-01-13T14:30:35.138Z,100518.44
2023-01-13T14:34:39.301Z,100518.59
2023-01-13T14:38:44.856Z,100521.34
2023-01-13T14:42:59.950Z,100515.88
2023-01-13T14:47:32.377Z,100519.31
2023-01-13T14:51:35.170Z,100511.34
2023-01-13T14:55:38.914Z,100515.06
2023-01-13T14:59:51.929Z,100526.78
2023-01-13T15:03:55.328Z,100519.88
2023-01-13T15:07:59.898Z,100526.31
2023-01-13T15:12:25.774Z,100534.53
2023-01-13T15:16:34.630Z,100527.72
2023-01-13T15:20:38.994Z,100516.31
2023-01-13T15:24:42.143Z,100530.34
2023-01-13T15:28:45.708Z,100520.72
2023-01-13T15:32:48.452Z,100513.41
2023-01-13T15:36:51.533Z,100510.75
2023-01-13T15:40:54.301Z,100515.25
2023-01-13T15:45:16.265Z,100504.28
2023-01-13T15:49:35.836Z,100509.53
